Time;durP1;ratioP1;P1;durP2;ratioP2;P2;SDS_P1;SDS_P2;PMS_P1;PMS_P2;Temp;Humidity;BMP_temperature;BMP_pressure;BME280_temperature;BME280_humidity;BME280_pressure;Samples;Min_cycle;Max_cycle;Signal;HPM_P1;HPM_P2
2024/01/19 00:00:55;;;;;;;72.50;33.00;;;;;;;-1.03;88.42;99061.29;130052;1265;108660;-77
2024/01/19 00:04:20;;;;;;;166.40;74.60;;;;;;;-1.15;88.82;99070.36;130142;1266;110032;-77
2024/01/19 00:07:25;;;;;;;123.20;53.80;;;;;;;-1.08;89.24;99083.46;130021;1265;108873;-77
2024/01/19 00:10:32;;;;;;;74.40;35.50;;;;;;;-1.01;88.99;99094.14;130032;1264;107087;-77
2024/01/19 00:13:38;;;;;;;58.70;29.60;;;;;;;-1.01;88.61;99097.45;130026;1271;106923;-77
2024/01/19 00:16:44;;;;;;;114.20;53.40;;;;;;;-1.23;88.38;99105.94;130076;1266;106453;-77
2024/01/19 00:19:50;;;;;;;63.20;29.40;;;;;;;-1.38;89.01;99108.94;130073;1265;109504;-77
2024/01/19 00:22:56;;;;;;;59.00;28.60;;;;;;;-1.51;89.00;99113.50;130046;1265;107545;-77
2024/01/19 00:26:01;;;;;;;55.20;26.60;;;;;;;-1.56;89.30;99115.70;130022;1272;106794;-77
2024/01/19 00:29:07;;;;;;;74.10;34.80;;;;;;;-1.58;89.55;99120.41;130073;1266;108740;-78
2024/01/19 00:32:13;;;;;;;88.70;41.40;;;;;;;-1.49;89.69;99125.69;130091;1263;106526;-77
2024/01/19 00:35:19;;;;;;;53.00;27.00;;;;;;;-1.40;88.72;99133.98;130078;1266;108698;-78
2024/01/19 00:38:25;;;;;;;54.60;26.10;;;;;;;-1.45;88.47;99137.84;130071;1270;106348;-77
2024/01/19 00:41:30;;;;;;;50.30;23.70;;;;;;;-1.55;88.38;99139.20;130092;1265;106451;-77
2024/01/19 00:44:36;;;;;;;49.20;25.10;;;;;;;-1.67;88.06;99145.94;130068;1265;108599;-78
2024/01/19 00:47:42;;;;;;;49.10;24.50;;;;;;;-1.80;87.98;99150.84;130119;1265;109165;-76
2024/01/19 00:50:47;;;;;;;54.90;26.60;;;;;;;-1.90;88.25;99155.63;130070;1274;108715;-78
2024/01/19 00:53:53;;;;;;;52.50;25.20;;;;;;;-1.88;88.50;99162.35;130069;1263;109421;-78
2024/01/19 00:56:58;;;;;;;53.60;23.70;;;;;;;-1.91;88.31;99173.13;130059;1265;106972;-76
2024/01/19 01:00:05;;;;;;;56.30;28.30;;;;;;;-1.98;88.36;99177.92;130018;1265;107181;-77
2024/01/19 01:03:11;;;;;;;51.90;24.10;;;;;;;-2.06;88.49;99177.27;130098;1266;108692;-76
2024/01/19 01:06:17;;;;;;;49.50;25.10;;;;;;;-2.13;88.69;99182.23;130109;1274;107741;-75
2024/01/19 01:09:23;;;;;;;50.60;23.40;;;;;;;-2.18;88.68;99181.49;130037;1264;107250;-77
2024/01/19 01:12:28;;;;;;;52.70;24.00;;;;;;;-2.19;88.80;99189.57;130048;1274;107684;-77
2024/01/19 01:15:34;;;;;;;54.80;26.50;;;;;;;-2.25;89.21;99195.53;130046;1265;105455;-77
2024/01/19 01:18:40;;;;;;;58.60;26.20;;;;;;;-2.34;89.40;99201.20;130072;1270;107675;-77
2024/01/19 01:21:46;;;;;;;54.00;24.20;;;;;;;-2.35;89.62;99213.25;130023;1266;106552;-78
2024/01/19 01:24:52;;;;;;;58.30;27.20;;;;;;;-2.36;89.75;99226.23;130063;1265;106250;-78
2024/01/19 01:27:57;;;;;;;71.50;31.20;;;;;;;-2.37;89.49;99228.36;130070;1274;108726;-76
2024/01/19 01:31:03;;;;;;;59.20;27.90;;;;;;;-2.42;89.65;99237.38;130084;1267;106291;-79
2024/01/19 01:34:08;;;;;;;60.30;27.40;;;;;;;-2.54;89.84;99245.58;130083;1260;107566;-76
2024/01/19 01:37:14;;;;;;;60.70;27.30;;;;;;;-2.60;90.05;99252.95;130058;1265;108614;-77
2024/01/19 01:40:20;;;;;;;61.10;28.30;;;;;;;-2.64;89.80;99256.68;130053;1274;108648;-78
2024/01/19 01:43:27;;;;;;;55.90;27.30;;;;;;;-2.68;90.51;99266.66;130106;1265;106980;-77
2024/01/19 01:46:33;;;;;;;56.30;25.10;;;;;;;-2.82;90.33;99279.36;130099;1265;107817;-76
2024/01/19 01:49:38;;;;;;;57.90;26.80;;;;;;;-2.92;90.43;99282.73;130094;1265;106423;-78
2024/01/19 01:52:44;;;;;;;57.10;24.40;;;;;;;-3.01;90.20;99289.18;130069;1267;106704;-78
2024/01/19 01:55:50;;;;;;;63.40;28.50;;;;;;;-3.10;90.72;99288.69;130076;1265;106655;-77
2024/01/19 01:58:56;;;;;;;61.10;24.70;;;;;;;-3.13;90.74;99289.73;130127;1266;107672;-77
2024/01/19 02:02:02;;;;;;;49.30;21.90;;;;;;;-3.14;90.31;99292.21;130073;1274;105722;-78
2024/01/19 02:05:09;;;;;;;50.70;22.50;;;;;;;-3.11;89.78;99296.02;130082;1271;106122;-78
2024/01/19 02:08:14;;;;;;;52.70;23.30;;;;;;;-3.12;89.96;99291.92;130075;1265;107752;-79
2024/01/19 02:11:20;;;;;;;53.10;22.50;;;;;;;-3.17;89.74;99305.42;130048;1263;107433;-78
2024/01/19 02:14:26;;;;;;;58.70;22.20;;;;;;;-3.24;89.69;99301.96;130060;1276;108962;-78
2024/01/19 02:17:32;;;;;;;49.30;21.30;;;;;;;-3.26;89.76;99304.54;130059;1265;105721;-76
2024/01/19 02:20:38;;;;;;;48.10;21.30;;;;;;;-3.29;89.72;99313.23;130113;1261;105504;-76
2024/01/19 02:23:54;;;;;;;46.40;19.40;;;;;;;-3.29;89.55;99317.25;130053;1275;107914;-77
2024/01/19 02:27:01;;;;;;;47.00;19.80;;;;;;;-3.14;89.79;99320.21;130082;1261;106278;-77
2024/01/19 02:30:09;;;;;;;42.90;17.90;;;;;;;-3.10;89.23;99332.84;130087;1265;108596;-78
2024/01/19 02:33:15;;;;;;;42.70;18.80;;;;;;;-3.08;89.10;99334.33;130125;1264;107114;-78
2024/01/19 02:36:20;;;;;;;40.20;19.40;;;;;;;-3.01;88.94;99344.67;130075;1261;108656;-76
2024/01/19 02:39:26;;;;;;;44.40;18.00;;;;;;;-3.01;88.56;99353.35;130036;1260;107523;-76
2024/01/19 02:42:33;;;;;;;50.40;22.20;;;;;;;-3.09;88.50;99350.38;130037;1261;107612;-77
2024/01/19 02:45:38;;;;;;;43.70;18.90;;;;;;;-3.07;88.75;99360.20;130058;1260;108698;-78
2024/01/19 02:48:44;;;;;;;36.50;16.30;;;;;;;-3.10;88.55;99365.02;130117;1276;106935;-76
2024/01/19 02:51:50;;;;;;;39.30;17.00;;;;;;;-3.05;88.45;99374.16;130055;1261;108580;-76
2024/01/19 02:54:55;;;;;;;37.90;16.70;;;;;;;-2.95;88.77;99372.49;130065;1261;107610;-77
2024/01/19 02:58:01;;;;;;;37.60;16.80;;;;;;;-2.85;88.28;99377.16;130047;1261;108715;-78
2024/01/19 03:01:08;;;;;;;41.50;17.00;;;;;;;-2.94;87.31;99376.98;130062;1261;108050;-78
2024/01/19 03:04:13;;;;;;;37.10;16.70;;;;;;;-3.12;87.58;99384.77;130113;1265;107241;-77
2024/01/19 03:07:19;;;;;;;41.80;16.10;;;;;;;-3.19;88.08;99388.86;130067;1276;108508;-75
2024/01/19 03:10:25;;;;;;;39.50;16.50;;;;;;;-3.21;88.38;99396.27;129837;1268;107690;-76
2024/01/19 03:13:31;;;;;;;40.40;16.10;;;;;;;-3.11;88.58;99400.21;129879;1274;107078;-77
2024/01/19 03:16:40;;;;;;;37.70;16.40;;;;;;;-3.07;88.13;99407.86;129918;1261;106549;-77
2024/01/19 03:19:47;;;;;;;38.30;15.60;;;;;;;-3.10;88.02;99414.27;130074;1269;107510;-78
2024/01/19 03:22:52;;;;;;;35.80;15.90;;;;;;;-3.06;88.23;99421.52;130076;1267;106553;-76
2024/01/19 03:25:58;;;;;;;72.80;25.30;;;;;;;-3.14;88.34;99428.94;130079;1266;106692;-76
2024/01/19 03:29:04;;;;;;;90.00;33.40;;;;;;;-3.13;88.66;99433.02;130031;1266;107605;-76
2024/01/19 03:32:09;;;;;;;50.00;21.10;;;;;;;-3.04;88.58;99441.42;130052;1267;106820;-76
2024/01/19 03:35:15;;;;;;;38.30;16.70;;;;;;;-3.00;88.68;99440.31;130117;1265;106864;-76
2024/01/19 03:38:20;;;;;;;161.00;59.10;;;;;;;-2.97;88.51;99437.02;129994;1265;106487;-77
2024/01/19 03:41:26;;;;;;;259.90;90.70;;;;;;;-2.94;88.42;99438.41;130058;1276;107011;-77
2024/01/19 03:44:32;;;;;;;47.50;21.70;;;;;;;-2.85;88.51;99432.15;130059;1277;107013;-78
2024/01/19 03:47:37;;;;;;;141.00;55.70;;;;;;;-2.77;88.48;99439.14;130066;1266;107694;-76
2024/01/19 03:50:43;;;;;;;79.70;32.90;;;;;;;-2.71;88.58;99441.09;130097;1266;106775;-77
2024/01/19 03:53:48;;;;;;;119.90;50.40;;;;;;;-2.58;88.55;99452.14;130135;1266;108738;-77
2024/01/19 03:56:54;;;;;;;62.40;27.60;;;;;;;-2.43;88.60;99454.92;130065;1267;108722;-76
2024/01/19 03:59:59;;;;;;;80.50;37.10;;;;;;;-2.32;88.69;99463.34;130026;1276;108384;-77
2024/01/19 04:03:05;;;;;;;67.50;31.50;;;;;;;-2.23;88.16;99466.67;130163;1260;109306;-77
2024/01/19 04:06:11;;;;;;;65.20;28.90;;;;;;;-2.22;87.82;99475.67;130104;1265;108616;-75
2024/01/19 04:09:16;;;;;;;65.80;24.30;;;;;;;-2.25;87.68;99476.52;130122;1260;108454;-76
2024/01/19 04:12:22;;;;;;;48.40;21.80;;;;;;;-2.27;87.57;99482.40;130135;1269;108135;-76
2024/01/19 04:15:28;;;;;;;159.20;62.30;;;;;;;-2.33;87.70;99487.46;130066;1261;107362;-77
2024/01/19 04:18:33;;;;;;;54.30;22.90;;;;;;;-2.32;88.11;99503.23;130116;1267;107823;-77
2024/01/19 04:21:39;;;;;;;298.80;94.80;;;;;;;-2.30;87.67;99510.14;130027;1267;107724;-78
2024/01/19 04:24:45;;;;;;;324.20;108.10;;;;;;;-2.29;87.92;99513.19;130065;1267;108451;-76
2024/01/19 04:27:51;;;;;;;197.80;65.00;;;;;;;-2.25;87.89;99518.16;130067;1267;108658;-76
2024/01/19 04:30:56;;;;;;;173.50;61.60;;;;;;;-2.18;87.33;99526.13;130060;1265;108650;-76
2024/01/19 04:34:02;;;;;;;96.70;35.60;;;;;;;-2.17;87.42;99529.40;130126;1266;106370;-77
2024/01/19 04:37:08;;;;;;;126.30;44.60;;;;;;;-2.11;86.94;99532.15;130086;1274;106729;-76
2024/01/19 04:40:14;;;;;;;154.80;60.60;;;;;;;-2.09;86.55;99536.77;130094;1282;108694;-76
2024/01/19 04:43:19;;;;;;;91.10;38.10;;;;;;;-2.14;86.20;99535.64;130070;1266;106736;-77
2024/01/19 04:46:25;;;;;;;66.20;26.80;;;;;;;-2.17;86.31;99533.76;130046;1267;106316;-78
2024/01/19 04:49:30;;;;;;;44.30;18.90;;;;;;;-2.23;85.76;99534.27;130176;1259;107354;-75
2024/01/19 04:52:36;;;;;;;225.00;79.50;;;;;;;-2.29;85.93;99537.95;130116;1261;106625;-76
2024/01/19 04:55:42;;;;;;;85.90;31.70;;;;;;;-2.35;85.46;99541.91;130129;1263;107470;-77
2024/01/19 04:58:47;;;;;;;45.50;19.50;;;;;;;-2.45;85.69;99550.52;130122;1264;107486;-77
2024/01/19 05:01:53;;;;;;;217.20;71.70;;;;;;;-2.46;85.63;99558.59;130096;1263;108758;-76
2024/01/19 05:04:58;;;;;;;159.60;58.00;;;;;;;-2.42;86.15;99563.54;130043;1267;106951;-76
2024/01/19 05:08:04;;;;;;;196.20;71.60;;;;;;;-2.32;85.60;99563.20;130063;1266;107491;-77
2024/01/19 05:11:13;;;;;;;436.30;192.40;;;;;;;-2.26;85.56;99559.17;130247;1260;108748;-78
2024/01/19 05:14:19;;;;;;;215.30;81.20;;;;;;;-2.14;85.86;99556.23;130101;1273;108698;-76
2024/01/19 05:17:24;;;;;;;188.80;75.40;;;;;;;-2.06;85.70;99555.91;130083;1267;106505;-76
2024/01/19 05:20:31;;;;;;;138.30;59.10;;;;;;;-2.01;85.41;99558.73;130112;1264;108617;-77
2024/01/19 05:23:36;;;;;;;103.60;46.30;;;;;;;-1.96;85.37;99561.95;130079;1267;107374;-77
2024/01/19 05:26:42;;;;;;;106.00;50.00;;;;;;;-1.99;84.89;99569.27;130094;1264;107787;-76
2024/01/19 05:29:48;;;;;;;57.90;28.90;;;;;;;-2.04;85.08;99566.09;130526;1262;106591;-77
2024/01/19 05:32:53;;;;;;;59.00;31.30;;;;;;;-2.09;84.84;99573.88;130185;1262;108494;-75
2024/01/19 05:35:59;;;;;;;42.00;22.70;;;;;;;-2.12;84.85;99574.08;130257;1263;108697;-77
2024/01/19 05:39:04;;;;;;;34.10;18.50;;;;;;;-2.16;84.96;99581.42;130202;1267;106405;-77
2024/01/19 05:42:10;;;;;;;25.20;13.60;;;;;;;-2.21;84.58;99588.48;130174;1266;107209;-76
2024/01/19 05:45:16;;;;;;;36.20;24.30;;;;;;;-2.25;84.66;99590.67;130083;1263;108160;-76
2024/01/19 05:48:24;;;;;;;44.10;26.00;;;;;;;-2.31;84.89;99587.67;130109;1262;107586;-77
2024/01/19 05:51:29;;;;;;;46.70;28.20;;;;;;;-2.39;84.43;99590.02;130088;1267;108766;-76
2024/01/19 05:54:36;;;;;;;42.90;25.00;;;;;;;-2.48;84.40;99593.02;130044;1267;108611;-75
2024/01/19 05:57:42;;;;;;;46.00;29.30;;;;;;;-2.56;84.44;99597.30;130295;1267;107775;-75
2024/01/19 06:00:49;;;;;;;68.80;42.90;;;;;;;-2.62;84.21;99600.57;130082;1265;108608;-75
2024/01/19 06:03:54;;;;;;;34.30;18.70;;;;;;;-2.70;84.26;99602.77;130168;1267;108390;-76
2024/01/19 06:07:00;;;;;;;25.40;12.50;;;;;;;-2.78;84.19;99606.15;130053;1265;108652;-76
2024/01/19 06:10:07;;;;;;;18.20;9.60;;;;;;;-2.85;84.08;99610.20;130317;1265;109155;-78
2024/01/19 06:13:13;;;;;;;19.60;9.80;;;;;;;-2.92;83.95;99615.30;130115;1274;106503;-78
2024/01/19 06:16:19;;;;;;;19.70;8.70;;;;;;;-2.96;83.83;99623.64;130142;1267;106367;-80
2024/01/19 06:19:24;;;;;;;16.50;8.30;;;;;;;-2.95;83.62;99627.08;130493;1260;106526;-78
2024/01/19 06:22:30;;;;;;;21.20;8.80;;;;;;;-2.93;83.66;99630.45;130642;1262;107675;-79
2024/01/19 06:25:36;;;;;;;18.40;8.90;;;;;;;-2.93;83.40;99637.44;132132;1260;106494;-78
2024/01/19 06:28:42;;;;;;;19.60;9.90;;;;;;;-2.94;83.28;99634.87;130277;1261;108785;-81
2024/01/19 06:31:48;;;;;;;21.40;10.30;;;;;;;-2.97;83.20;99633.98;130498;1260;107156;-79
2024/01/19 06:34:54;;;;;;;21.00;9.60;;;;;;;-3.00;83.03;99640.60;130246;1264;107456;-80
2024/01/19 06:38:00;;;;;;;21.40;9.80;;;;;;;-3.06;82.75;99639.17;130276;1262;108758;-78
2024/01/19 06:41:06;;;;;;;23.20;11.00;;;;;;;-3.12;83.00;99643.50;130266;1262;107002;-80
2024/01/19 06:44:13;;;;;;;20.00;10.20;;;;;;;-3.17;82.77;99641.64;130174;1262;108429;-79
2024/01/19 06:47:20;;;;;;;21.90;10.30;;;;;;;-3.21;82.81;99643.96;130182;1262;107843;-80
2024/01/19 06:50:26;;;;;;;21.90;10.80;;;;;;;-3.26;82.84;99650.13;130059;1262;107632;-79
2024/01/19 06:53:32;;;;;;;20.10;10.40;;;;;;;-3.29;82.76;99654.11;130063;1267;107092;-79
2024/01/19 06:56:37;;;;;;;19.50;10.10;;;;;;;-3.32;82.76;99654.64;130066;1267;107220;-80
2024/01/19 06:59:43;;;;;;;22.70;12.80;;;;;;;-3.37;82.52;99660.94;130052;1267;106346;-80
2024/01/19 07:02:48;;;;;;;24.40;12.60;;;;;;;-3.38;82.80;99667.64;130395;1260;108742;-78
2024/01/19 07:05:55;;;;;;;23.70;11.80;;;;;;;-3.40;82.46;99671.40;130121;1265;106786;-80
2024/01/19 07:09:00;;;;;;;28.50;13.90;;;;;;;-3.44;82.55;99678.87;130207;1259;107611;-78
2024/01/19 07:12:07;;;;;;;27.20;14.10;;;;;;;-3.44;82.66;99670.89;130168;1264;106640;-81
2024/01/19 07:15:13;;;;;;;23.60;12.30;;;;;;;-3.47;82.46;99670.90;130200;1260;108774;-79
2024/01/19 07:18:18;;;;;;;30.30;14.30;;;;;;;-3.48;82.70;99675.95;130104;1260;106963;-80
2024/01/19 07:21:24;;;;;;;38.00;17.70;;;;;;;-3.44;82.97;99676.62;130433;1262;107595;-79
2024/01/19 07:24:32;;;;;;;66.80;28.60;;;;;;;-3.40;82.68;99677.62;130094;1259;106696;-78
2024/01/19 07:27:38;;;;;;;89.50;36.10;;;;;;;-3.36;83.08;99678.14;130148;1264;107856;-78
2024/01/19 07:30:43;;;;;;;113.20;46.20;;;;;;;-3.30;82.94;99682.18;130154;1260;108472;-80
2024/01/19 07:33:49;;;;;;;72.10;29.90;;;;;;;-3.25;82.90;99682.27;130257;1263;108440;-79
2024/01/19 07:36:55;;;;;;;72.30;28.30;;;;;;;-3.20;82.73;99678.34;130239;1264;106775;-79
2024/01/19 07:40:00;;;;;;;64.20;24.10;;;;;;;-3.10;83.01;99678.35;130345;1265;108556;-79
2024/01/19 07:43:06;;;;;;;77.00;27.60;;;;;;;-2.95;83.00;99683.11;130240;1264;106479;-81
2024/01/19 07:46:14;;;;;;;55.40;20.50;;;;;;;-2.79;82.71;99682.45;130158;1262;107536;-79
2024/01/19 07:49:21;;;;;;;92.00;34.70;;;;;;;-2.64;82.54;99682.01;130124;1265;108661;-77
2024/01/19 07:52:27;;;;;;;68.40;28.50;;;;;;;-2.50;82.54;99678.98;130147;1261;106498;-78
2024/01/19 07:55:32;;;;;;;90.50;39.80;;;;;;;-2.36;82.54;99676.48;130042;1263;108149;-78
2024/01/19 07:58:38;;;;;;;63.50;28.00;;;;;;;-2.26;82.38;99678.52;130437;1260;107708;-79
2024/01/19 08:01:44;;;;;;;178.20;69.20;;;;;;;-2.18;82.54;99675.61;130112;1261;107713;-81
2024/01/19 08:04:49;;;;;;;110.00;45.80;;;;;;;-2.11;82.49;99677.48;130079;1266;108551;-79
2024/01/19 08:07:55;;;;;;;96.00;42.70;;;;;;;-2.06;82.13;99677.91;130150;1261;107657;-80
2024/01/19 08:11:01;;;;;;;98.80;44.90;;;;;;;-2.00;82.41;99676.87;130234;1266;108165;-78
2024/01/19 08:14:06;;;;;;;116.50;43.80;;;;;;;-1.92;82.45;99680.80;130288;1260;107116;-80
2024/01/19 08:17:12;;;;;;;117.30;45.20;;;;;;;-1.85;82.17;99681.06;130107;1267;106399;-79
2024/01/19 08:20:18;;;;;;;62.30;26.80;;;;;;;-1.78;82.34;99675.42;130157;1262;108560;-80
2024/01/19 08:23:24;;;;;;;75.20;35.00;;;;;;;-1.71;82.32;99675.41;130330;1261;107539;-78
2024/01/19 08:26:31;;;;;;;77.90;38.90;;;;;;;-1.66;82.07;99673.33;130213;1264;106451;-80
2024/01/19 08:29:36;;;;;;;65.40;32.00;;;;;;;-1.63;82.20;99677.50;130248;1260;107568;-78
2024/01/19 08:32:42;;;;;;;66.80;34.10;;;;;;;-1.58;82.35;99677.77;130434;1265;108477;-78
2024/01/19 08:35:47;;;;;;;55.80;29.10;;;;;;;-1.53;82.04;99677.66;130163;1262;109339;-79
2024/01/19 08:38:53;;;;;;;50.50;25.00;;;;;;;-1.50;82.03;99681.31;130035;1267;107560;-77
2024/01/19 08:41:59;;;;;;;66.70;35.40;;;;;;;-1.47;82.15;99681.80;130071;1261;106898;-78
2024/01/19 08:45:05;;;;;;;57.30;30.20;;;;;;;-1.42;82.15;99684.88;130123;1266;107167;-82
2024/01/19 08:48:12;;;;;;;52.60;25.90;;;;;;;-1.36;82.03;99689.55;130110;1264;106351;-78
2024/01/19 08:51:24;;;;;;;50.70;27.20;;;;;;;-1.29;81.96;99700.45;130119;1267;108813;-78
2024/01/19 08:54:29;;;;;;;63.50;30.60;;;;;;;-1.19;81.92;99699.02;130084;1266;106588;-77
2024/01/19 08:57:35;;;;;;;43.80;21.50;;;;;;;-1.11;82.06;99698.71;130050;1262;107792;-78
2024/01/19 09:00:41;;;;;;;40.00;20.00;;;;;;;-1.03;81.82;99699.42;130058;1260;107517;-78
2024/01/19 09:03:46;;;;;;;79.00;32.60;;;;;;;-0.92;81.84;99700.70;130109;1260;106589;-77
2024/01/19 09:06:53;;;;;;;117.70;42.40;;;;;;;-0.80;81.98;99706.29;130986;1262;106823;-78
2024/01/19 09:09:58;;;;;;;174.80;65.20;;;;;;;-0.71;81.59;99710.58;130197;1265;107585;-76
2024/01/19 09:13:04;;;;;;;191.00;84.90;;;;;;;-0.67;81.03;99712.11;130629;1265;108743;-77
2024/01/19 09:16:10;;;;;;;129.10;64.10;;;;;;;-0.60;81.53;99716.91;130230;1262;106891;-78
2024/01/19 09:19:16;;;;;;;74.30;36.10;;;;;;;-0.46;81.73;99717.59;130241;1261;107695;-78
2024/01/19 09:22:22;;;;;;;62.20;30.40;;;;;;;-0.32;81.65;99722.87;130155;1267;106407;-81
2024/01/19 09:25:27;;;;;;;94.10;46.20;;;;;;;-0.20;81.54;99719.48;130211;1266;106825;-79
2024/01/19 09:28:33;;;;;;;71.90;39.80;;;;;;;-0.10;81.48;99726.54;130078;1264;108786;-76
2024/01/19 09:31:44;;;;;;;108.80;62.40;;;;;;;-0.02;81.26;99728.98;130120;1266;108729;-77
2024/01/19 09:34:50;;;;;;;55.40;29.80;;;;;;;0.07;81.08;99734.70;130097;1262;106573;-78
2024/01/19 09:37:56;;;;;;;64.70;34.60;;;;;;;0.10;81.02;99739.05;130060;1262;108466;-78
2024/01/19 09:41:11;;;;;;;48.00;24.80;;;;;;;0.16;81.03;99744.07;130120;1268;107750;-78
2024/01/19 09:44:21;;;;;;;84.00;45.70;;;;;;;0.28;80.99;99748.73;130058;1264;108688;-79
2024/01/19 09:47:36;;;;;;;55.70;29.50;;;;;;;0.35;81.03;99754.25;130150;1262;107123;-79
2024/01/19 09:50:46;;;;;;;43.80;24.80;;;;;;;0.41;80.63;99757.68;129934;1262;106996;-77
2024/01/19 09:54:00;;;;;;;116.70;60.20;;;;;;;0.48;80.84;99762.42;129923;1268;107805;-78
2024/01/19 09:57:06;;;;;;;79.70;35.60;;;;;;;0.54;80.59;99764.52;130413;1262;108721;-78
2024/01/19 10:00:14;;;;;;;48.00;24.10;;;;;;;0.57;80.56;99768.01;130103;1265;106439;-78
2024/01/19 10:03:22;;;;;;;42.80;22.90;;;;;;;0.63;80.52;99775.84;130109;1262;107631;-79
2024/01/19 10:06:28;;;;;;;44.70;24.90;;;;;;;0.67;80.42;99780.46;130239;1268;107868;-78
2024/01/19 10:09:34;;;;;;;48.30;25.50;;;;;;;0.76;80.40;99784.08;130119;1265;106495;-80
2024/01/19 10:12:40;;;;;;;42.00;22.60;;;;;;;0.77;79.93;99783.31;130362;1266;107202;-79
2024/01/19 10:15:46;;;;;;;40.20;23.00;;;;;;;0.74;80.07;99783.83;130066;1266;108607;-81
2024/01/19 10:18:52;;;;;;;44.30;24.90;;;;;;;0.75;79.85;99785.16;130077;1266;108812;-78
2024/01/19 10:21:58;;;;;;;93.40;49.30;;;;;;;0.76;79.27;99787.59;130234;1262;106521;-80
2024/01/19 10:25:08;;;;;;;50.60;26.10;;;;;;;0.78;79.74;99786.03;130267;1262;107772;-80
2024/01/19 10:28:30;;;;;;;75.70;38.70;;;;;;;0.82;79.66;99786.85;130179;1265;108725;-79
2024/01/19 10:31:37;;;;;;;56.50;30.00;;;;;;;0.84;79.43;99787.91;130145;1263;107726;-80
2024/01/19 10:34:42;;;;;;;88.50;44.40;;;;;;;0.84;79.10;99784.98;130392;1262;108570;-78
2024/01/19 10:37:48;;;;;;;81.90;42.10;;;;;;;0.87;79.64;99782.50;130059;1265;108790;-79
2024/01/19 10:40:54;;;;;;;53.90;28.20;;;;;;;0.91;79.11;99777.85;130167;1265;106520;-80
2024/01/19 10:44:12;;;;;;;53.90;28.50;;;;;;;0.90;79.14;99780.20;130090;1262;108690;-79
2024/01/19 10:47:17;;;;;;;107.90;48.00;;;;;;;0.92;79.24;99781.80;130157;1261;107860;-80
2024/01/19 10:50:26;;;;;;;75.70;37.20;;;;;;;0.95;79.38;99781.05;130077;1264;107538;-79
2024/01/19 10:53:32;;;;;;;85.20;42.10;;;;;;;0.96;79.18;99787.82;130113;1264;107946;-79
2024/01/19 10:56:39;;;;;;;56.50;30.10;;;;;;;0.94;78.70;99779.94;130179;1261;106672;-81
2024/01/19 10:59:45;;;;;;;51.00;27.60;;;;;;;0.94;78.91;99776.58;130083;1265;108685;-79
2024/01/19 11:02:53;;;;;;;67.10;37.70;;;;;;;0.94;78.58;99784.96;130095;1261;109241;-80
2024/01/19 11:06:00;;;;;;;69.10;38.00;;;;;;;0.96;78.65;99790.28;130259;1262;107847;-80
2024/01/19 11:09:07;;;;;;;50.40;28.30;;;;;;;0.94;78.51;99791.31;130091;1264;107382;-80
2024/01/19 11:12:17;;;;;;;58.60;33.10;;;;;;;0.91;78.11;99786.97;130158;1265;107564;-80
2024/01/19 11:15:32;;;;;;;106.10;64.80;;;;;;;0.90;78.33;99786.70;130073;1265;107706;-79
2024/01/19 11:18:38;;;;;;;56.70;33.70;;;;;;;0.93;78.35;99790.98;130099;1267;106619;-80
2024/01/19 11:21:45;;;;;;;47.20;28.00;;;;;;;0.94;77.91;99789.50;130075;1268;108609;-79
2024/01/19 11:24:53;;;;;;;41.80;24.30;;;;;;;0.93;78.04;99790.64;130161;1262;108584;-80
2024/01/19 11:28:08;;;;;;;41.20;23.10;;;;;;;0.97;77.88;99784.10;130266;1265;108673;-82
2024/01/19 11:31:18;;;;;;;35.50;20.60;;;;;;;0.95;77.79;99780.89;130326;1265;107713;-82
2024/01/19 11:34:49;;;;;;;38.00;21.60;;;;;;;0.94;77.78;99780.61;130417;1260;107154;-80
2024/01/19 11:37:55;;;;;;;34.20;20.30;;;;;;;0.94;77.73;99778.48;130310;1266;109405;-83
2024/01/19 11:41:00;;;;;;;34.60;20.10;;;;;;;0.94;77.47;99779.58;130393;1267;107847;-84
2024/01/19 11:44:10;;;;;;;34.90;19.30;;;;;;;0.93;77.47;99781.20;130367;1267;108692;-80
2024/01/19 11:47:45;;;;;;;38.70;23.00;;;;;;;0.95;77.54;99777.88;130477;1267;108661;-79
2024/01/19 11:50:56;;;;;;;32.60;19.70;;;;;;;0.98;77.53;99779.27;130117;1262;109315;-79
2024/01/19 11:54:02;;;;;;;39.00;22.80;;;;;;;1.00;77.19;99780.05;130156;1264;108730;-79
2024/01/19 11:57:22;;;;;;;37.30;21.90;;;;;;;0.98;77.09;99778.26;130306;1262;107918;-79
2024/01/19 12:00:29;;;;;;;35.10;20.10;;;;;;;0.97;77.41;99774.64;130138;1263;106304;-78
2024/01/19 12:03:35;;;;;;;31.80;19.10;;;;;;;0.95;77.29;99768.30;130133;1265;106898;-78
2024/01/19 12:06:43;;;;;;;34.90;19.80;;;;;;;0.89;77.25;99768.15;130112;1267;109754;-77
2024/01/19 12:10:08;;;;;;;30.70;18.00;;;;;;;0.87;77.36;99764.13;130136;1265;106596;-78
2024/01/19 12:13:14;;;;;;;34.30;18.60;;;;;;;0.85;77.43;99767.70;130168;1262;108738;-78
2024/01/19 12:16:23;;;;;;;33.60;18.60;;;;;;;0.83;77.30;99764.36;130291;1262;107980;-78
2024/01/19 12:19:29;;;;;;;30.90;18.30;;;;;;;0.81;77.28;99768.73;130102;1262;107660;-77
2024/01/19 12:22:35;;;;;;;33.90;20.10;;;;;;;0.75;77.18;99773.82;130071;1265;106684;-78
2024/01/19 12:25:54;;;;;;;66.40;34.70;;;;;;;0.69;77.00;99775.81;130081;1263;106605;-79
2024/01/19 12:29:00;;;;;;;104.20;56.40;;;;;;;0.65;77.40;99776.95;130036;1261;108256;-77
2024/01/19 12:32:14;;;;;;;61.70;32.70;;;;;;;0.63;77.34;99780.37;130124;1265;106412;-79
2024/01/19 12:35:22;;;;;;;114.80;56.20;;;;;;;0.61;77.30;99786.85;130416;1261;108647;-79
2024/01/19 12:38:28;;;;;;;70.40;33.10;;;;;;;0.56;77.03;99786.27;130484;1262;107776;-76
2024/01/19 12:41:35;;;;;;;54.60;25.50;;;;;;;0.50;77.05;99791.02;130295;1264;107656;-76
2024/01/19 12:44:41;;;;;;;109.40;49.70;;;;;;;0.48;77.07;99786.61;130070;1265;108525;-77
2024/01/19 12:47:49;;;;;;;58.70;27.90;;;;;;;0.49;77.14;99785.72;130147;1264;107693;-76
2024/01/19 12:50:55;;;;;;;44.40;22.90;;;;;;;0.49;76.96;99793.42;130139;1260;107960;-77
2024/01/19 12:54:01;;;;;;;43.70;24.30;;;;;;;0.47;77.10;99798.40;130149;1265;108553;-78
2024/01/19 12:57:17;;;;;;;52.90;29.30;;;;;;;0.47;77.05;99801.55;130407;1262;108457;-75
2024/01/19 13:00:26;;;;;;;64.60;36.80;;;;;;;0.48;76.99;99805.55;130265;1265;106577;-75
2024/01/19 13:03:31;;;;;;;86.50;51.80;;;;;;;0.49;77.01;99805.98;130281;1265;106470;-76
2024/01/19 13:06:43;;;;;;;59.40;33.90;;;;;;;0.48;76.94;99806.42;131787;1259;107508;-78
2024/01/19 13:10:03;;;;;;;60.30;32.50;;;;;;;0.48;76.99;99813.44;130289;1265;107559;-81
2024/01/19 13:13:14;;;;;;;54.70;28.70;;;;;;;0.50;77.02;99818.55;130195;1260;106602;-81
2024/01/19 13:16:20;;;;;;;45.10;24.10;;;;;;;0.55;77.08;99819.05;130187;1259;106563;-80
2024/01/19 13:19:26;;;;;;;36.70;18.90;;;;;;;0.64;76.98;99822.19;130189;1264;108639;-78
2024/01/19 13:22:31;;;;;;;41.80;21.50;;;;;;;0.71;76.85;99823.59;130168;1264;106924;-79
2024/01/19 13:25:38;;;;;;;84.50;45.50;;;;;;;0.78;76.76;99826.67;130442;1263;108058;-85
2024/01/19 13:28:43;;;;;;;71.60;35.50;;;;;;;0.81;76.39;99830.69;130523;1265;108655;-80
2024/01/19 13:31:49;;;;;;;57.20;30.70;;;;;;;0.81;76.34;99829.65;130152;1262;108605;-80
2024/01/19 13:34:54;;;;;;;55.60;30.10;;;;;;;0.78;76.45;99829.79;130213;1261;106454;-81
2024/01/19 13:38:00;;;;;;;59.10;33.70;;;;;;;0.76;76.56;99831.67;130598;1262;107600;-80
2024/01/19 13:41:08;;;;;;;57.90;30.70;;;;;;;0.75;76.62;99836.14;130364;1262;107460;-82
2024/01/19 13:44:14;;;;;;;51.60;28.50;;;;;;;0.70;76.49;99838.52;130436;1259;108467;-82
2024/01/19 13:47:19;;;;;;;73.50;39.40;;;;;;;0.64;76.37;99848.06;130429;1259;108634;-81
2024/01/19 13:50:25;;;;;;;81.00;42.30;;;;;;;0.60;76.41;99852.88;130390;1262;108763;-82
2024/01/19 13:53:30;;;;;;;79.20;39.90;;;;;;;0.54;76.32;99853.07;130387;1262;107968;-81
2024/01/19 13:56:36;;;;;;;47.80;25.00;;;;;;;0.47;76.45;99862.45;130372;1265;107623;-81
2024/01/19 13:59:41;;;;;;;40.20;22.30;;;;;;;0.44;76.52;99865.49;130372;1261;106477;-81